sensor_id;sensor_type;location;lat;lon;timestamp;temperature;humidity
5304;DHT22;2674;49.722;10.892;2023-03-14T00:01:20;9.00;99.90
5304;DHT22;2674;49.722;10.892;2023-03-14T00:03:46;9.00;99.90
5304;DHT22;2674;49.722;10.892;2023-03-14T00:06:13;9.00;99.90
5304;DHT22;2674;49.722;10.892;2023-03-14T00:08:41;9.00;99.90
5304;DHT22;2674;49.722;10.892;2023-03-14T00:11:09;8.90;99.90
5304;DHT22;2674;49.722;10.892;2023-03-14T00:13:36;8.90;99.90
5304;DHT22;2674;49.722;10.892;2023-03-14T00:16:07;8.90;99.90
5304;DHT22;2674;49.722;10.892;2023-03-14T00:18:33;8.90;99.90
5304;DHT22;2674;49.722;10.892;2023-03-14T00:21:00;8.90;99.90
5304;DHT22;2674;49.722;10.892;2023-03-14T00:23:31;8.90;99.90
5304;DHT22;2674;49.722;10.892;2023-03-14T00:26:05;8.90;99.90
5304;DHT22;2674;49.722;10.892;2023-03-14T00:28:31;8.90;99.90
5304;DHT22;2674;49.722;10.892;2023-03-14T00:30:57;8.90;99.90
5304;DHT22;2674;49.722;10.892;2023-03-14T00:33:23;8.90;99.90
5304;DHT22;2674;49.722;10.892;2023-03-14T00:36:04;8.90;99.90
5304;DHT22;2674;49.722;10.892;2023-03-14T00:38:32;8.90;99.90
5304;DHT22;2674;49.722;10.892;2023-03-14T00:40:58;8.90;99.90
5304;DHT22;2674;49.722;10.892;2023-03-14T00:43:24;8.90;99.90
5304;DHT22;2674;49.722;10.892;2023-03-14T00:45:50;8.90;99.90
5304;DHT22;2674;49.722;10.892;2023-03-14T00:48:18;8.90;99.90
5304;DHT22;2674;49.722;10.892;2023-03-14T00:50:44;8.90;99.90
5304;DHT22;2674;49.722;10.892;2023-03-14T00:53:10;8.90;99.90
5304;DHT22;2674;49.722;10.892;2023-03-14T00:55:37;8.90;99.90
5304;DHT22;2674;49.722;10.892;2023-03-14T00:58:03;8.90;99.90
5304;DHT22;2674;49.722;10.892;2023-03-14T01:00:29;8.90;99.90
5304;DHT22;2674;49.722;10.892;2023-03-14T01:02:55;9.10;99.90
5304;DHT22;2674;49.722;10.892;2023-03-14T01:05:22;8.90;99.90
5304;DHT22;2674;49.722;10.892;2023-03-14T01:07:48;8.90;99.90
5304;DHT22;2674;49.722;10.892;2023-03-14T01:10:15;8.90;99.90
5304;DHT22;2674;49.722;10.892;2023-03-14T01:12:41;8.90;99.90
5304;DHT22;2674;49.722;10.892;2023-03-14T01:15:07;8.90;99.90
5304;DHT22;2674;49.722;10.892;2023-03-14T01:17:33;8.90;99.90
5304;DHT22;2674;49.722;10.892;2023-03-14T01:20:00;8.90;99.90
5304;DHT22;2674;49.722;10.892;2023-03-14T01:22:26;8.80;99.90
5304;DHT22;2674;49.722;10.892;2023-03-14T01:24:52;8.90;99.90
5304;DHT22;2674;49.722;10.892;2023-03-14T01:27:18;8.90;99.90
5304;DHT22;2674;49.722;10.892;2023-03-14T01:29:43;8.90;99.90
5304;DHT22;2674;49.722;10.892;2023-03-14T01:32:09;9.00;99.90
5304;DHT22;2674;49.722;10.892;2023-03-14T01:34:35;9.00;99.90
5304;DHT22;2674;49.722;10.892;2023-03-14T01:37:01;9.00;99.90
5304;DHT22;2674;49.722;10.892;2023-03-14T01:39:26;9.00;99.90
5304;DHT22;2674;49.722;10.892;2023-03-14T01:41:54;9.10;99.90
5304;DHT22;2674;49.722;10.892;2023-03-14T01:44:20;9.10;99.90
5304;DHT22;2674;49.722;10.892;2023-03-14T01:46:46;9.10;99.90
5304;DHT22;2674;49.722;10.892;2023-03-14T01:49:28;9.10;99.90
5304;DHT22;2674;49.722;10.892;2023-03-14T01:52:06;9.00;99.90
5304;DHT22;2674;49.722;10.892;2023-03-14T01:54:39;9.10;99.90
5304;DHT22;2674;49.722;10.892;2023-03-14T01:57:26;9.00;99.90
5304;DHT22;2674;49.722;10.892;2023-03-14T02:00:07;9.00;99.90
5304;DHT22;2674;49.722;10.892;2023-03-14T02:02:46;9.00;99.90
5304;DHT22;2674;49.722;10.892;2023-03-14T02:05:15;9.00;99.90
5304;DHT22;2674;49.722;10.892;2023-03-14T02:10:12;8.90;99.90
5304;DHT22;2674;49.722;10.892;2023-03-14T02:12:40;8.90;99.90
5304;DHT22;2674;49.722;10.892;2023-03-14T02:15:06;9.00;99.90
5304;DHT22;2674;49.722;10.892;2023-03-14T02:17:32;8.90;99.90
5304;DHT22;2674;49.722;10.892;2023-03-14T02:22:52;8.90;99.90
5304;DHT22;2674;49.722;10.892;2023-03-14T02:28:25;8.80;99.90
5304;DHT22;2674;49.722;10.892;2023-03-14T02:30:51;8.80;99.90
5304;DHT22;2674;49.722;10.892;2023-03-14T02:33:20;8.80;99.90
5304;DHT22;2674;49.722;10.892;2023-03-14T02:36:01;8.70;99.90
5304;DHT22;2674;49.722;10.892;2023-03-14T02:38:49;8.70;99.90
5304;DHT22;2674;49.722;10.892;2023-03-14T02:41:16;8.70;99.90
5304;DHT22;2674;49.722;10.892;2023-03-14T02:43:42;8.60;99.90
5304;DHT22;2674;49.722;10.892;2023-03-14T02:46:11;8.60;99.90
5304;DHT22;2674;49.722;10.892;2023-03-14T02:49:10;8.60;99.90
5304;DHT22;2674;49.722;10.892;2023-03-14T02:51:38;8.60;99.90
5304;DHT22;2674;49.722;10.892;2023-03-14T02:54:05;8.60;99.90
5304;DHT22;2674;49.722;10.892;2023-03-14T02:56:32;8.60;99.90
5304;DHT22;2674;49.722;10.892;2023-03-14T02:58:57;8.60;99.90
5304;DHT22;2674;49.722;10.892;2023-03-14T03:01:24;8.60;99.90
5304;DHT22;2674;49.722;10.892;2023-03-14T03:03:49;8.60;99.90
5304;DHT22;2674;49.722;10.892;2023-03-14T03:06:15;8.60;99.90
5304;DHT22;2674;49.722;10.892;2023-03-14T03:08:44;8.60;99.90
5304;DHT22;2674;49.722;10.892;2023-03-14T03:11:10;8.60;99.90
5304;DHT22;2674;49.722;10.892;2023-03-14T03:13:36;8.60;99.90
5304;DHT22;2674;49.722;10.892;2023-03-14T03:16:01;8.60;99.90
5304;DHT22;2674;49.722;10.892;2023-03-14T03:18:27;8.60;99.90
5304;DHT22;2674;49.722;10.892;2023-03-14T03:20:53;8.60;99.90
5304;DHT22;2674;49.722;10.892;2023-03-14T03:23:19;8.50;99.90
5304;DHT22;2674;49.722;10.892;2023-03-14T03:25:49;8.50;99.90
5304;DHT22;2674;49.722;10.892;2023-03-14T03:28:15;8.50;99.90
5304;DHT22;2674;49.722;10.892;2023-03-14T03:30:41;8.50;99.90
5304;DHT22;2674;49.722;10.892;2023-03-14T03:33:08;8.50;99.90
5304;DHT22;2674;49.722;10.892;2023-03-14T03:35:35;8.50;99.90
5304;DHT22;2674;49.722;10.892;2023-03-14T03:38:06;8.50;99.90
5304;DHT22;2674;49.722;10.892;2023-03-14T03:40:32;8.50;99.90
5304;DHT22;2674;49.722;10.892;2023-03-14T03:42:58;8.50;99.90
5304;DHT22;2674;49.722;10.892;2023-03-14T03:45:24;8.50;99.90
5304;DHT22;2674;49.722;10.892;2023-03-14T03:47:49;8.50;99.90
5304;DHT22;2674;49.722;10.892;2023-03-14T03:50:15;8.50;99.90
5304;DHT22;2674;49.722;10.892;2023-03-14T03:52:41;8.50;99.90
5304;DHT22;2674;49.722;10.892;2023-03-14T03:55:08;8.40;99.90
5304;DHT22;2674;49.722;10.892;2023-03-14T03:57:33;8.40;99.90
5304;DHT22;2674;49.722;10.892;2023-03-14T03:59:59;8.40;99.90
5304;DHT22;2674;49.722;10.892;2023-03-14T04:02:25;8.40;99.90
5304;DHT22;2674;49.722;10.892;2023-03-14T04:04:51;8.50;99.90
5304;DHT22;2674;49.722;10.892;2023-03-14T04:07:17;8.40;99.90
5304;DHT22;2674;49.722;10.892;2023-03-14T04:09:43;8.40;99.90
5304;DHT22;2674;49.722;10.892;2023-03-14T04:12:09;8.40;99.90
5304;DHT22;2674;49.722;10.892;2023-03-14T04:14:36;8.40;99.90
5304;DHT22;2674;49.722;10.892;2023-03-14T04:17:02;8.40;99.90
5304;DHT22;2674;49.722;10.892;2023-03-14T04:19:28;8.40;99.90
5304;DHT22;2674;49.722;10.892;2023-03-14T04:21:53;8.40;99.90
5304;DHT22;2674;49.722;10.892;2023-03-14T04:24:19;8.40;99.90
5304;DHT22;2674;49.722;10.892;2023-03-14T04:26:45;8.40;99.90
5304;DHT22;2674;49.722;10.892;2023-03-14T04:29:11;8.40;99.90
5304;DHT22;2674;49.722;10.892;2023-03-14T04:31:37;8.40;99.90
5304;DHT22;2674;49.722;10.892;2023-03-14T04:34:03;8.40;99.90
5304;DHT22;2674;49.722;10.892;2023-03-14T04:36:29;8.40;99.90
5304;DHT22;2674;49.722;10.892;2023-03-14T04:38:55;8.40;99.90
5304;DHT22;2674;49.722;10.892;2023-03-14T04:41:20;8.40;99.90
5304;DHT22;2674;49.722;10.892;2023-03-14T04:43:46;8.40;99.90
5304;DHT22;2674;49.722;10.892;2023-03-14T04:46:12;8.30;99.90
5304;DHT22;2674;49.722;10.892;2023-03-14T04:48:38;8.30;99.90
5304;DHT22;2674;49.722;10.892;2023-03-14T04:51:04;8.30;99.90
5304;DHT22;2674;49.722;10.892;2023-03-14T04:53:30;8.30;99.90
5304;DHT22;2674;49.722;10.892;2023-03-14T04:55:56;8.30;99.90
5304;DHT22;2674;49.722;10.892;2023-03-14T04:58:23;8.30;99.90
5304;DHT22;2674;49.722;10.892;2023-03-14T05:00:50;8.30;99.90
5304;DHT22;2674;49.722;10.892;2023-03-14T05:03:17;8.20;99.90
5304;DHT22;2674;49.722;10.892;2023-03-14T05:05:43;8.20;99.90
5304;DHT22;2674;49.722;10.892;2023-03-14T05:08:10;8.20;99.90
5304;DHT22;2674;49.722;10.892;2023-03-14T05:10:36;8.20;99.90
5304;DHT22;2674;49.722;10.892;2023-03-14T05:13:03;8.20;99.90
5304;DHT22;2674;49.722;10.892;2023-03-14T05:15:29;8.10;99.90
5304;DHT22;2674;49.722;10.892;2023-03-14T05:17:54;8.10;99.90
5304;DHT22;2674;49.722;10.892;2023-03-14T05:20:21;8.00;99.90
5304;DHT22;2674;49.722;10.892;2023-03-14T05:22:47;8.00;99.90
5304;DHT22;2674;49.722;10.892;2023-03-14T05:25:13;8.00;99.90
5304;DHT22;2674;49.722;10.892;2023-03-14T05:27:39;7.90;99.90
5304;DHT22;2674;49.722;10.892;2023-03-14T05:30:06;7.90;99.90
5304;DHT22;2674;49.722;10.892;2023-03-14T05:32:32;7.90;99.90
5304;DHT22;2674;49.722;10.892;2023-03-14T05:34:58;7.90;99.90
5304;DHT22;2674;49.722;10.892;2023-03-14T05:37:28;7.90;99.90
5304;DHT22;2674;49.722;10.892;2023-03-14T05:39:53;7.80;99.90
5304;DHT22;2674;49.722;10.892;2023-03-14T05:42:19;7.80;99.90
5304;DHT22;2674;49.722;10.892;2023-03-14T05:44:45;7.80;99.90
5304;DHT22;2674;49.722;10.892;2023-03-14T05:47:11;7.80;99.90
5304;DHT22;2674;49.722;10.892;2023-03-14T05:49:37;7.80;99.90
5304;DHT22;2674;49.722;10.892;2023-03-14T05:52:03;7.80;99.90
5304;DHT22;2674;49.722;10.892;2023-03-14T05:54:29;7.70;99.90
5304;DHT22;2674;49.722;10.892;2023-03-14T05:56:54;7.80;99.90
5304;DHT22;2674;49.722;10.892;2023-03-14T05:59:20;7.70;99.90
5304;DHT22;2674;49.722;10.892;2023-03-14T06:01:46;7.70;99.90
5304;DHT22;2674;49.722;10.892;2023-03-14T06:04:12;7.70;99.90
5304;DHT22;2674;49.722;10.892;2023-03-14T06:06:38;7.70;99.90
5304;DHT22;2674;49.722;10.892;2023-03-14T06:09:04;7.70;99.90
5304;DHT22;2674;49.722;10.892;2023-03-14T06:11:30;7.70;99.90
5304;DHT22;2674;49.722;10.892;2023-03-14T06:13:56;7.70;99.90
5304;DHT22;2674;49.722;10.892;2023-03-14T06:16:21;7.70;99.90
5304;DHT22;2674;49.722;10.892;2023-03-14T06:18:47;7.70;99.90
5304;DHT22;2674;49.722;10.892;2023-03-14T06:21:14;7.70;99.90
5304;DHT22;2674;49.722;10.892;2023-03-14T06:23:40;7.70;99.90
5304;DHT22;2674;49.722;10.892;2023-03-14T06:26:06;7.80;99.90
5304;DHT22;2674;49.722;10.892;2023-03-14T06:28:32;7.80;99.90
5304;DHT22;2674;49.722;10.892;2023-03-14T06:30:59;7.80;99.90
5304;DHT22;2674;49.722;10.892;2023-03-14T06:33:25;7.80;99.90
5304;DHT22;2674;49.722;10.892;2023-03-14T06:35:51;7.80;99.90
5304;DHT22;2674;49.722;10.892;2023-03-14T06:38:17;7.80;99.90
5304;DHT22;2674;49.722;10.892;2023-03-14T06:40:43;7.90;99.90
5304;DHT22;2674;49.722;10.892;2023-03-14T06:43:09;7.90;99.90
5304;DHT22;2674;49.722;10.892;2023-03-14T06:45:35;8.00;99.90
5304;DHT22;2674;49.722;10.892;2023-03-14T06:48:01;8.00;99.90
5304;DHT22;2674;49.722;10.892;2023-03-14T06:50:27;8.00;99.90
5304;DHT22;2674;49.722;10.892;2023-03-14T06:52:53;8.10;99.90
5304;DHT22;2674;49.722;10.892;2023-03-14T06:55:22;8.20;99.90
5304;DHT22;2674;49.722;10.892;2023-03-14T06:57:48;8.20;99.90
5304;DHT22;2674;49.722;10.892;2023-03-14T07:00:14;8.20;99.90
5304;DHT22;2674;49.722;10.892;2023-03-14T07:02:40;8.30;99.90
5304;DHT22;2674;49.722;10.892;2023-03-14T07:05:06;8.30;99.90
5304;DHT22;2674;49.722;10.892;2023-03-14T07:07:32;8.40;99.90
5304;DHT22;2674;49.722;10.892;2023-03-14T07:09:58;8.40;99.90
5304;DHT22;2674;49.722;10.892;2023-03-14T07:12:24;8.40;99.90
5304;DHT22;2674;49.722;10.892;2023-03-14T07:14:50;8.50;99.90
5304;DHT22;2674;49.722;10.892;2023-03-14T07:17:15;8.60;99.90
5304;DHT22;2674;49.722;10.892;2023-03-14T07:19:41;8.60;99.90
5304;DHT22;2674;49.722;10.892;2023-03-14T07:22:07;8.60;99.90
5304;DHT22;2674;49.722;10.892;2023-03-14T07:24:33;8.60;99.90
5304;DHT22;2674;49.722;10.892;2023-03-14T07:26:59;8.60;99.90
5304;DHT22;2674;49.722;10.892;2023-03-14T07:29:24;8.60;99.90
5304;DHT22;2674;49.722;10.892;2023-03-14T07:31:50;8.70;99.90
5304;DHT22;2674;49.722;10.892;2023-03-14T07:34:16;8.70;99.90
5304;DHT22;2674;49.722;10.892;2023-03-14T07:36:42;8.80;99.90
5304;DHT22;2674;49.722;10.892;2023-03-14T07:39:08;8.90;99.90
5304;DHT22;2674;49.722;10.892;2023-03-14T07:41:34;8.90;99.90
5304;DHT22;2674;49.722;10.892;2023-03-14T07:44:00;9.00;99.90
5304;DHT22;2674;49.722;10.892;2023-03-14T07:46:26;9.10;99.90
5304;DHT22;2674;49.722;10.892;2023-03-14T07:48:52;9.20;99.90
5304;DHT22;2674;49.722;10.892;2023-03-14T07:51:17;9.30;99.90
5304;DHT22;2674;49.722;10.892;2023-03-14T07:53:43;9.40;99.90
5304;DHT22;2674;49.722;10.892;2023-03-14T07:56:09;9.50;99.90
5304;DHT22;2674;49.722;10.892;2023-03-14T07:58:35;9.60;99.90
5304;DHT22;2674;49.722;10.892;2023-03-14T08:01:01;9.60;99.90
5304;DHT22;2674;49.722;10.892;2023-03-14T08:03:27;9.70;99.90
5304;DHT22;2674;49.722;10.892;2023-03-14T08:05:53;10.00;99.90
5304;DHT22;2674;49.722;10.892;2023-03-14T08:08:19;10.20;99.90
5304;DHT22;2674;49.722;10.892;2023-03-14T08:10:46;10.40;99.90
5304;DHT22;2674;49.722;10.892;2023-03-14T08:13:12;10.40;99.90
5304;DHT22;2674;49.722;10.892;2023-03-14T08:15:38;10.40;99.90
5304;DHT22;2674;49.722;10.892;2023-03-14T08:18:05;10.40;99.90
5304;DHT22;2674;49.722;10.892;2023-03-14T08:20:31;10.40;99.90
5304;DHT22;2674;49.722;10.892;2023-03-14T08:23:00;10.50;99.90
5304;DHT22;2674;49.722;10.892;2023-03-14T08:25:27;10.50;99.90
5304;DHT22;2674;49.722;10.892;2023-03-14T08:27:53;10.50;99.90
5304;DHT22;2674;49.722;10.892;2023-03-14T08:30:20;10.50;99.90
5304;DHT22;2674;49.722;10.892;2023-03-14T08:32:46;10.50;99.90
5304;DHT22;2674;49.722;10.892;2023-03-14T08:35:13;10.60;99.90
5304;DHT22;2674;49.722;10.892;2023-03-14T08:37:39;10.60;99.90
5304;DHT22;2674;49.722;10.892;2023-03-14T08:40:07;10.80;99.90
5304;DHT22;2674;49.722;10.892;2023-03-14T08:42:36;10.80;99.90
5304;DHT22;2674;49.722;10.892;2023-03-14T08:45:02;11.00;99.90
5304;DHT22;2674;49.722;10.892;2023-03-14T08:47:27;11.00;99.90
5304;DHT22;2674;49.722;10.892;2023-03-14T08:49:53;11.00;95.10
5304;DHT22;2674;49.722;10.892;2023-03-14T08:52:19;11.10;99.90
5304;DHT22;2674;49.722;10.892;2023-03-14T08:54:46;11.10;98.20
5304;DHT22;2674;49.722;10.892;2023-03-14T08:57:11;11.10;96.60
5304;DHT22;2674;49.722;10.892;2023-03-14T08:59:37;11.00;84.60
5304;DHT22;2674;49.722;10.892;2023-03-14T09:02:03;11.10;68.70
5304;DHT22;2674;49.722;10.892;2023-03-14T09:04:30;11.10;79.90
5304;DHT22;2674;49.722;10.892;2023-03-14T09:06:57;11.10;73.30
5304;DHT22;2674;49.722;10.892;2023-03-14T09:09:24;11.10;52.40
5304;DHT22;2674;49.722;10.892;2023-03-14T09:11:53;11.00;61.80
5304;DHT22;2674;49.722;10.892;2023-03-14T09:14:19;11.00;72.40
5304;DHT22;2674;49.722;10.892;2023-03-14T09:16:45;10.90;76.70
5304;DHT22;2674;49.722;10.892;2023-03-14T09:19:10;10.80;88.50
5304;DHT22;2674;49.722;10.892;2023-03-14T09:21:36;10.70;97.20
5304;DHT22;2674;49.722;10.892;2023-03-14T09:24:04;10.60;90.80
5304;DHT22;2674;49.722;10.892;2023-03-14T09:26:30;10.50;67.50
5304;DHT22;2674;49.722;10.892;2023-03-14T09:28:56;10.50;71.00
5304;DHT22;2674;49.722;10.892;2023-03-14T09:31:22;10.50;54.60
5304;DHT22;2674;49.722;10.892;2023-03-14T09:33:48;10.50;53.90
5304;DHT22;2674;49.722;10.892;2023-03-14T09:36:14;10.50;68.90
5304;DHT22;2674;49.722;10.892;2023-03-14T09:38:40;10.50;83.80
5304;DHT22;2674;49.722;10.892;2023-03-14T09:41:17;10.50;58.00
5304;DHT22;2674;49.722;10.892;2023-03-14T09:43:46;10.40;66.50
5304;DHT22;2674;49.722;10.892;2023-03-14T09:46:17;10.40;83.20
5304;DHT22;2674;49.722;10.892;2023-03-14T09:48:44;10.30;99.90
5304;DHT22;2674;49.722;10.892;2023-03-14T09:51:17;10.30;99.90
5304;DHT22;2674;49.722;10.892;2023-03-14T09:53:46;10.20;99.90
5304;DHT22;2674;49.722;10.892;2023-03-14T09:56:25;10.20;99.90
5304;DHT22;2674;49.722;10.892;2023-03-14T09:58:56;10.30;91.70
5304;DHT22;2674;49.722;10.892;2023-03-14T10:01:26;10.30;75.30
5304;DHT22;2674;49.722;10.892;2023-03-14T10:03:55;10.40;90.60
5304;DHT22;2674;49.722;10.892;2023-03-14T10:06:27;10.50;88.60
5304;DHT22;2674;49.722;10.892;2023-03-14T10:08:54;10.50;71.70
5304;DHT22;2674;49.722;10.892;2023-03-14T10:11:21;10.60;74.00
5304;DHT22;2674;49.722;10.892;2023-03-14T10:14:02;10.70;73.60
5304;DHT22;2674;49.722;10.892;2023-03-14T10:16:42;10.80;59.00
5304;DHT22;2674;49.722;10.892;2023-03-14T10:19:14;10.80;40.40
5304;DHT22;2674;49.722;10.892;2023-03-14T10:21:50;10.90;33.20
5304;DHT22;2674;49.722;10.892;2023-03-14T10:24:34;10.90;27.30
5304;DHT22;2674;49.722;10.892;2023-03-14T10:27:08;11.00;26.00
5304;DHT22;2674;49.722;10.892;2023-03-14T10:29:54;11.10;16.70
5304;DHT22;2674;49.722;10.892;2023-03-14T10:32:22;11.20;32.90
5304;DHT22;2674;49.722;10.892;2023-03-14T10:35:19;11.20;29.30
5304;DHT22;2674;49.722;10.892;2023-03-14T10:38:04;11.30;22.50
5304;DHT22;2674;49.722;10.892;2023-03-14T10:40:34;11.30;22.00
5304;DHT22;2674;49.722;10.892;2023-03-14T10:43:05;11.40;18.90
5304;DHT22;2674;49.722;10.892;2023-03-14T10:45:44;11.50;25.30
5304;DHT22;2674;49.722;10.892;2023-03-14T10:48:25;11.60;17.20
5304;DHT22;2674;49.722;10.892;2023-03-14T10:51:06;11.60;13.20
5304;DHT22;2674;49.722;10.892;2023-03-14T10:53:39;11.70;11.90
5304;DHT22;2674;49.722;10.892;2023-03-14T10:56:05;11.80;11.00
5304;DHT22;2674;49.722;10.892;2023-03-14T10:58:44;11.80;4.00
5304;DHT22;2674;49.722;10.892;2023-03-14T11:04:00;12.10;1.70
5304;DHT22;2674;49.722;10.892;2023-03-14T11:08:57;12.30;1.00
5304;DHT22;2674;49.722;10.892;2023-03-14T11:11:31;12.30;1.00
5304;DHT22;2674;49.722;10.892;2023-03-14T11:22:28;12.30;1.00
5304;DHT22;2674;49.722;10.892;2023-03-14T11:27:42;12.50;1.00
5304;DHT22;2674;49.722;10.892;2023-03-14T11:33:07;12.70;1.00
5304;DHT22;2674;49.722;10.892;2023-03-14T11:35:47;12.60;1.00
5304;DHT22;2674;49.722;10.892;2023-03-14T11:38:24;12.70;1.00
5304;DHT22;2674;49.722;10.892;2023-03-14T11:40:55;12.90;1.00
5304;DHT22;2674;49.722;10.892;2023-03-14T11:43:39;13.00;1.00
5304;DHT22;2674;49.722;10.892;2023-03-14T11:46:16;12.90;1.00
5304;DHT22;2674;49.722;10.892;2023-03-14T11:49:00;12.80;1.00
5304;DHT22;2674;49.722;10.892;2023-03-14T11:51:36;12.80;1.00
5304;DHT22;2674;49.722;10.892;2023-03-14T11:59:23;12.80;1.00
5304;DHT22;2674;49.722;10.892;2023-03-14T12:04:48;13.00;1.00
5304;DHT22;2674;49.722;10.892;2023-03-14T12:07:23;13.10;1.00
5304;DHT22;2674;49.722;10.892;2023-03-14T12:09:54;13.20;1.00
5304;DHT22;2674;49.722;10.892;2023-03-14T12:12:24;13.20;1.00
5304;DHT22;2674;49.722;10.892;2023-03-14T12:14:59;13.20;1.00
5304;DHT22;2674;49.722;10.892;2023-03-14T12:20:20;13.10;1.00
5304;DHT22;2674;49.722;10.892;2023-03-14T12:23:02;13.00;1.00
5304;DHT22;2674;49.722;10.892;2023-03-14T12:25:32;13.00;1.00
5304;DHT22;2674;49.722;10.892;2023-03-14T12:28:31;12.90;1.00
5304;DHT22;2674;49.722;10.892;2023-03-14T12:30:56;12.90;1.00
5304;DHT22;2674;49.722;10.892;2023-03-14T12:33:42;12.80;1.00
5304;DHT22;2674;49.722;10.892;2023-03-14T12:36:20;12.70;1.00
5304;DHT22;2674;49.722;10.892;2023-03-14T12:39:13;12.80;1.00
5304;DHT22;2674;49.722;10.892;2023-03-14T12:41:46;12.80;1.00
5304;DHT22;2674;49.722;10.892;2023-03-14T12:49:53;12.60;1.00
5304;DHT22;2674;49.722;10.892;2023-03-14T12:52:36;12.50;1.00
5304;DHT22;2674;49.722;10.892;2023-03-14T12:55:21;12.40;1.00
5304;DHT22;2674;49.722;10.892;2023-03-14T12:58:08;12.40;3.10
5304;DHT22;2674;49.722;10.892;2023-03-14T13:00:41;12.20;3.60
5304;DHT22;2674;49.722;10.892;2023-03-14T13:03:21;12.20;1.00
5304;DHT22;2674;49.722;10.892;2023-03-14T13:06:01;12.20;5.40
5304;DHT22;2674;49.722;10.892;2023-03-14T13:11:21;12.00;1.00
5304;DHT22;2674;49.722;10.892;2023-03-14T13:13:52;11.90;6.90
5304;DHT22;2674;49.722;10.892;2023-03-14T13:16:20;11.70;29.30
5304;DHT22;2674;49.722;10.892;2023-03-14T13:18:48;11.50;43.40
5304;DHT22;2674;49.722;10.892;2023-03-14T13:21:22;11.20;52.10
5304;DHT22;2674;49.722;10.892;2023-03-14T13:23:56;11.00;98.60
5304;DHT22;2674;49.722;10.892;2023-03-14T13:26:24;10.90;99.90
5304;DHT22;2674;49.722;10.892;2023-03-14T13:28:51;10.70;99.90
5304;DHT22;2674;49.722;10.892;2023-03-14T13:31:25;10.60;99.90
5304;DHT22;2674;49.722;10.892;2023-03-14T13:34:01;10.50;99.90
5304;DHT22;2674;49.722;10.892;2023-03-14T13:36:28;10.30;99.90
5304;DHT22;2674;49.722;10.892;2023-03-14T13:38:59;10.20;99.90
5304;DHT22;2674;49.722;10.892;2023-03-14T13:41:25;10.10;99.90
5304;DHT22;2674;49.722;10.892;2023-03-14T13:43:52;10.00;99.90
5304;DHT22;2674;49.722;10.892;2023-03-14T13:46:26;10.00;99.90
5304;DHT22;2674;49.722;10.892;2023-03-14T13:48:59;10.00;99.90
5304;DHT22;2674;49.722;10.892;2023-03-14T13:51:27;9.90;99.90
5304;DHT22;2674;49.722;10.892;2023-03-14T13:53:57;9.90;99.90
5304;DHT22;2674;49.722;10.892;2023-03-14T13:56:27;9.80;99.90
5304;DHT22;2674;49.722;10.892;2023-03-14T13:58:53;9.80;99.90
5304;DHT22;2674;49.722;10.892;2023-03-14T14:01:28;9.80;99.90
5304;DHT22;2674;49.722;10.892;2023-03-14T14:03:57;9.80;99.90
5304;DHT22;2674;49.722;10.892;2023-03-14T14:08:57;9.70;99.90
5304;DHT22;2674;49.722;10.892;2023-03-14T14:11:41;9.70;99.90
5304;DHT22;2674;49.722;10.892;2023-03-14T14:14:32;9.70;99.90
5304;DHT22;2674;49.722;10.892;2023-03-14T14:17:06;9.60;99.90
5304;DHT22;2674;49.722;10.892;2023-03-14T14:19:34;9.50;99.90
5304;DHT22;2674;49.722;10.892;2023-03-14T14:22:07;9.50;99.90
5304;DHT22;2674;49.722;10.892;2023-03-14T14:24:34;9.50;99.90
5304;DHT22;2674;49.722;10.892;2023-03-14T14:27:35;9.50;99.90
5304;DHT22;2674;49.722;10.892;2023-03-14T14:30:32;9.40;99.90
5304;DHT22;2674;49.722;10.892;2023-03-14T14:33:20;9.30;99.90
5304;DHT22;2674;49.722;10.892;2023-03-14T14:35:58;9.10;99.90
5304;DHT22;2674;49.722;10.892;2023-03-14T14:38:26;8.90;99.90
5304;DHT22;2674;49.722;10.892;2023-03-14T14:40:54;8.70;99.90
5304;DHT22;2674;49.722;10.892;2023-03-14T14:43:24;8.60;99.90
5304;DHT22;2674;49.722;10.892;2023-03-14T14:45:53;8.60;99.90
5304;DHT22;2674;49.722;10.892;2023-03-14T14:48:24;8.50;99.90
5304;DHT22;2674;49.722;10.892;2023-03-14T14:55:49;8.60;99.90
5304;DHT22;2674;49.722;10.892;2023-03-14T14:58:22;8.60;99.90
5304;DHT22;2674;49.722;10.892;2023-03-14T15:01:07;8.60;99.90
5304;DHT22;2674;49.722;10.892;2023-03-14T15:03:34;8.60;99.90
5304;DHT22;2674;49.722;10.892;2023-03-14T15:06:02;8.60;99.90
5304;DHT22;2674;49.722;10.892;2023-03-14T15:08:28;8.60;99.90
5304;DHT22;2674;49.722;10.892;2023-03-14T15:10:55;8.60;99.90
5304;DHT22;2674;49.722;10.892;2023-03-14T15:13:21;8.60;99.90
5304;DHT22;2674;49.722;10.892;2023-03-14T15:15:49;8.60;99.90
5304;DHT22;2674;49.722;10.892;2023-03-14T15:18:22;8.60;99.90
5304;DHT22;2674;49.722;10.892;2023-03-14T15:20:49;8.60;99.90
5304;DHT22;2674;49.722;10.892;2023-03-14T15:23:18;8.60;99.90
5304;DHT22;2674;49.722;10.892;2023-03-14T15:25:44;8.50;99.90
5304;DHT22;2674;49.722;10.892;2023-03-14T15:28:23;8.50;99.90
5304;DHT22;2674;49.722;10.892;2023-03-14T15:30:54;8.40;99.90
5304;DHT22;2674;49.722;10.892;2023-03-14T15:33:21;8.40;99.90
5304;DHT22;2674;49.722;10.892;2023-03-14T15:35:47;8.30;99.90
5304;DHT22;2674;49.722;10.892;2023-03-14T15:38:16;8.20;99.90
5304;DHT22;2674;49.722;10.892;2023-03-14T15:40:45;8.00;99.90
5304;DHT22;2674;49.722;10.892;2023-03-14T15:43:10;7.90;99.90
5304;DHT22;2674;49.722;10.892;2023-03-14T15:45:36;7.60;99.90
5304;DHT22;2674;49.722;10.892;2023-03-14T15:48:03;7.40;99.90
5304;DHT22;2674;49.722;10.892;2023-03-14T15:50:29;7.20;99.90
5304;DHT22;2674;49.722;10.892;2023-03-14T15:52:55;7.00;99.90
5304;DHT22;2674;49.722;10.892;2023-03-14T15:55:22;6.90;99.90
5304;DHT22;2674;49.722;10.892;2023-03-14T15:57:48;6.90;99.90
5304;DHT22;2674;49.722;10.892;2023-03-14T16:00:17;6.90;99.90
5304;DHT22;2674;49.722;10.892;2023-03-14T16:02:43;6.90;99.90
5304;DHT22;2674;49.722;10.892;2023-03-14T16:05:11;7.00;99.90
5304;DHT22;2674;49.722;10.892;2023-03-14T16:07:37;7.00;99.90
5304;DHT22;2674;49.722;10.892;2023-03-14T16:10:04;7.00;99.90
5304;DHT22;2674;49.722;10.892;2023-03-14T16:12:31;7.00;99.90
5304;DHT22;2674;49.722;10.892;2023-03-14T16:14:57;7.00;99.90
5304;DHT22;2674;49.722;10.892;2023-03-14T16:17:23;7.00;99.90
5304;DHT22;2674;49.722;10.892;2023-03-14T16:19:49;6.90;99.90
5304;DHT22;2674;49.722;10.892;2023-03-14T16:22:15;6.90;99.90
5304;DHT22;2674;49.722;10.892;2023-03-14T16:24:41;6.90;99.90
5304;DHT22;2674;49.722;10.892;2023-03-14T16:27:07;6.80;99.90
5304;DHT22;2674;49.722;10.892;2023-03-14T16:29:33;6.80;99.90
5304;DHT22;2674;49.722;10.892;2023-03-14T16:31:59;6.80;99.90
5304;DHT22;2674;49.722;10.892;2023-03-14T16:34:25;6.80;99.90
5304;DHT22;2674;49.722;10.892;2023-03-14T16:36:51;6.80;99.90
5304;DHT22;2674;49.722;10.892;2023-03-14T16:39:17;6.80;99.90
5304;DHT22;2674;49.722;10.892;2023-03-14T16:41:43;6.80;99.90
5304;DHT22;2674;49.722;10.892;2023-03-14T16:44:28;6.70;99.90
5304;DHT22;2674;49.722;10.892;2023-03-14T16:46:55;6.80;99.90
5304;DHT22;2674;49.722;10.892;2023-03-14T16:49:22;6.80;99.90
5304;DHT22;2674;49.722;10.892;2023-03-14T16:51:47;6.70;99.90
5304;DHT22;2674;49.722;10.892;2023-03-14T16:54:13;6.70;99.90
5304;DHT22;2674;49.722;10.892;2023-03-14T16:56:39;6.60;99.90
5304;DHT22;2674;49.722;10.892;2023-03-14T16:59:05;6.50;99.90
5304;DHT22;2674;49.722;10.892;2023-03-14T17:01:32;6.40;99.90
5304;DHT22;2674;49.722;10.892;2023-03-14T17:03:58;6.30;99.90